sensor_id;sensor_type;location;lat;lon;timestamp;P1;durP1;ratioP1;P2;durP2;ratioP2
4078;SDS011;2054;47.858;11.156;2023-04-03T02:45:30;17.45;;;8.93;;
4078;SDS011;2054;47.858;11.156;2023-04-03T02:47:58;16.13;;;8.73;;
4078;SDS011;2054;47.858;11.156;2023-04-03T02:50:25;14.27;;;8.20;;
4078;SDS011;2054;47.858;11.156;2023-04-03T02:52:52;12.70;;;8.38;;
4078;SDS011;2054;47.858;11.156;2023-04-03T02:55:21;13.05;;;8.27;;
4078;SDS011;2054;47.858;11.156;2023-04-03T02:57:48;15.02;;;8.60;;
4078;SDS011;2054;47.858;11.156;2023-04-03T03:00:16;16.70;;;8.85;;
4078;SDS011;2054;47.858;11.156;2023-04-03T03:02:45;14.43;;;8.43;;
4078;SDS011;2054;47.858;11.156;2023-04-03T03:05:12;15.57;;;8.43;;
4078;SDS011;2054;47.858;11.156;2023-04-03T03:07:39;16.20;;;8.85;;
4078;SDS011;2054;47.858;11.156;2023-04-03T03:10:07;14.40;;;8.75;;
4078;SDS011;2054;47.858;11.156;2023-04-03T03:12:34;15.50;;;8.43;;
4078;SDS011;2054;47.858;11.156;2023-04-03T03:15:02;16.20;;;9.18;;
4078;SDS011;2054;47.858;11.156;2023-04-03T03:17:29;13.60;;;8.25;;
4078;SDS011;2054;47.858;11.156;2023-04-03T03:19:58;14.50;;;8.43;;
4078;SDS011;2054;47.858;11.156;2023-04-03T03:22:25;15.43;;;8.27;;
4078;SDS011;2054;47.858;11.156;2023-04-03T03:24:53;15.90;;;8.85;;
4078;SDS011;2054;47.858;11.156;2023-04-03T03:27:20;14.18;;;7.80;;
4078;SDS011;2054;47.858;11.156;2023-04-03T03:29:49;14.63;;;7.75;;
4078;SDS011;2054;47.858;11.156;2023-04-03T03:32:16;14.15;;;8.20;;
4078;SDS011;2054;47.858;11.156;2023-04-03T03:34:44;12.40;;;7.72;;
4078;SDS011;2054;47.858;11.156;2023-04-03T03:37:13;11.30;;;7.68;;
4078;SDS011;2054;47.858;11.156;2023-04-03T03:39:40;12.15;;;7.47;;
4078;SDS011;2054;47.858;11.156;2023-04-03T03:42:07;12.68;;;7.80;;
4078;SDS011;2054;47.858;11.156;2023-04-03T03:44:35;13.60;;;7.45;;
4078;SDS011;2054;47.858;11.156;2023-04-03T03:47:02;12.70;;;7.68;;
4078;SDS011;2054;47.858;11.156;2023-04-03T03:49:31;13.88;;;7.70;;
4078;SDS011;2054;47.858;11.156;2023-04-03T03:51:58;12.27;;;7.13;;
4078;SDS011;2054;47.858;11.156;2023-04-03T03:54:26;11.98;;;7.55;;
4078;SDS011;2054;47.858;11.156;2023-04-03T03:56:55;12.40;;;7.05;;
4078;SDS011;2054;47.858;11.156;2023-04-03T03:59:22;11.13;;;7.43;;
4078;SDS011;2054;47.858;11.156;2023-04-03T04:01:50;13.45;;;7.05;;
4078;SDS011;2054;47.858;11.156;2023-04-03T04:04:17;12.68;;;7.40;;
4078;SDS011;2054;47.858;11.156;2023-04-03T04:06:45;13.30;;;7.70;;
4078;SDS011;2054;47.858;11.156;2023-04-03T04:09:12;13.02;;;7.68;;
4078;SDS011;2054;47.858;11.156;2023-04-03T04:11:41;13.50;;;7.57;;
4078;SDS011;2054;47.858;11.156;2023-04-03T04:14:08;17.25;;;8.73;;
4078;SDS011;2054;47.858;11.156;2023-04-03T04:16:37;16.33;;;8.07;;
4078;SDS011;2054;47.858;11.156;2023-04-03T04:19:07;13.95;;;8.02;;
4078;SDS011;2054;47.858;11.156;2023-04-03T04:21:34;14.90;;;8.30;;
4078;SDS011;2054;47.858;11.156;2023-04-03T04:24:02;12.13;;;7.70;;
4078;SDS011;2054;47.858;11.156;2023-04-03T04:26:30;13.13;;;7.45;;
4078;SDS011;2054;47.858;11.156;2023-04-03T04:28:59;12.00;;;7.88;;
4078;SDS011;2054;47.858;11.156;2023-04-03T04:31:27;15.13;;;7.15;;
4078;SDS011;2054;47.858;11.156;2023-04-03T04:33:54;14.52;;;7.75;;
4078;SDS011;2054;47.858;11.156;2023-04-03T04:36:21;14.40;;;7.63;;
4078;SDS011;2054;47.858;11.156;2023-04-03T04:38:49;12.35;;;7.45;;
4078;SDS011;2054;47.858;11.156;2023-04-03T04:41:17;14.90;;;7.90;;
4078;SDS011;2054;47.858;11.156;2023-04-03T04:43:46;13.02;;;8.05;;
4078;SDS011;2054;47.858;11.156;2023-04-03T04:46:15;15.30;;;8.35;;
4078;SDS011;2054;47.858;11.156;2023-04-03T04:48:42;13.73;;;7.20;;
4078;SDS011;2054;47.858;11.156;2023-04-03T04:51:10;13.63;;;7.78;;
4078;SDS011;2054;47.858;11.156;2023-04-03T04:53:38;14.90;;;7.57;;
4078;SDS011;2054;47.858;11.156;2023-04-03T04:56:06;13.25;;;8.45;;
4078;SDS011;2054;47.858;11.156;2023-04-03T04:58:33;15.05;;;8.63;;
4078;SDS011;2054;47.858;11.156;2023-04-03T05:01:01;13.23;;;8.27;;
4078;SDS011;2054;47.858;11.156;2023-04-03T05:03:30;14.23;;;8.48;;
4078;SDS011;2054;47.858;11.156;2023-04-03T05:05:57;14.77;;;8.07;;
4078;SDS011;2054;47.858;11.156;2023-04-03T05:08:25;12.75;;;8.25;;
4078;SDS011;2054;47.858;11.156;2023-04-03T05:10:52;13.50;;;8.43;;
4078;SDS011;2054;47.858;11.156;2023-04-03T05:13:19;16.55;;;8.20;;
4078;SDS011;2054;47.858;11.156;2023-04-03T05:15:47;13.80;;;8.23;;
4078;SDS011;2054;47.858;11.156;2023-04-03T05:18:14;15.15;;;7.65;;
4078;SDS011;2054;47.858;11.156;2023-04-03T05:20:43;12.73;;;7.13;;
4078;SDS011;2054;47.858;11.156;2023-04-03T05:23:10;11.38;;;6.82;;
4078;SDS011;2054;47.858;11.156;2023-04-03T05:25:38;12.70;;;6.55;;
4078;SDS011;2054;47.858;11.156;2023-04-03T05:28:06;13.00;;;7.05;;
4078;SDS011;2054;47.858;11.156;2023-04-03T05:30:35;16.88;;;7.65;;
4078;SDS011;2054;47.858;11.156;2023-04-03T05:33:02;12.35;;;7.22;;
4078;SDS011;2054;47.858;11.156;2023-04-03T05:35:30;11.07;;;6.65;;
4078;SDS011;2054;47.858;11.156;2023-04-03T05:37:59;13.90;;;7.50;;
4078;SDS011;2054;47.858;11.156;2023-04-03T05:40:26;10.32;;;7.18;;
4078;SDS011;2054;47.858;11.156;2023-04-03T05:42:54;11.25;;;7.18;;
4078;SDS011;2054;47.858;11.156;2023-04-03T05:45:22;11.32;;;7.57;;
4078;SDS011;2054;47.858;11.156;2023-04-03T05:47:49;12.90;;;7.10;;
4078;SDS011;2054;47.858;11.156;2023-04-03T05:50:16;12.10;;;7.00;;
4078;SDS011;2054;47.858;11.156;2023-04-03T05:52:44;11.15;;;7.38;;
4078;SDS011;2054;47.858;11.156;2023-04-03T05:55:14;14.93;;;7.75;;
4078;SDS011;2054;47.858;11.156;2023-04-03T05:57:41;12.75;;;7.10;;
4078;SDS011;2054;47.858;11.156;2023-04-03T06:00:12;9.95;;;6.60;;
4078;SDS011;2054;47.858;11.156;2023-04-03T06:02:40;10.52;;;6.68;;
4078;SDS011;2054;47.858;11.156;2023-04-03T06:05:08;11.77;;;8.10;;
4078;SDS011;2054;47.858;11.156;2023-04-03T06:07:36;11.73;;;7.03;;
4078;SDS011;2054;47.858;11.156;2023-04-03T06:10:06;14.07;;;6.95;;
4078;SDS011;2054;47.858;11.156;2023-04-03T06:12:37;13.73;;;7.60;;
4078;SDS011;2054;47.858;11.156;2023-04-03T06:15:05;10.85;;;7.13;;
4078;SDS011;2054;47.858;11.156;2023-04-03T06:17:35;9.35;;;6.78;;
4078;SDS011;2054;47.858;11.156;2023-04-03T06:20:02;13.98;;;7.10;;
4078;SDS011;2054;47.858;11.156;2023-04-03T06:22:30;12.43;;;6.95;;
4078;SDS011;2054;47.858;11.156;2023-04-03T06:24:57;10.30;;;6.93;;
4078;SDS011;2054;47.858;11.156;2023-04-03T06:27:24;9.30;;;6.43;;
4078;SDS011;2054;47.858;11.156;2023-04-03T06:29:53;10.50;;;6.15;;
4078;SDS011;2054;47.858;11.156;2023-04-03T06:32:20;7.95;;;5.95;;
4078;SDS011;2054;47.858;11.156;2023-04-03T06:34:48;7.18;;;5.43;;
4078;SDS011;2054;47.858;11.156;2023-04-03T06:37:16;7.82;;;6.03;;
4078;SDS011;2054;47.858;11.156;2023-04-03T06:39:44;11.32;;;6.25;;
4078;SDS011;2054;47.858;11.156;2023-04-03T06:42:12;8.80;;;5.63;;
4078;SDS011;2054;47.858;11.156;2023-04-03T06:44:40;13.73;;;6.28;;
4078;SDS011;2054;47.858;11.156;2023-04-03T06:47:10;8.23;;;5.72;;
4078;SDS011;2054;47.858;11.156;2023-04-03T06:49:38;8.52;;;5.40;;
4078;SDS011;2054;47.858;11.156;2023-04-03T06:52:06;7.95;;;5.53;;
4078;SDS011;2054;47.858;11.156;2023-04-03T06:54:33;8.48;;;5.70;;
4078;SDS011;2054;47.858;11.156;2023-04-03T06:57:01;10.60;;;6.07;;
4078;SDS011;2054;47.858;11.156;2023-04-03T06:59:29;7.95;;;5.55;;
4078;SDS011;2054;47.858;11.156;2023-04-03T07:01:56;9.00;;;5.60;;
4078;SDS011;2054;47.858;11.156;2023-04-03T07:04:26;8.20;;;4.93;;
4078;SDS011;2054;47.858;11.156;2023-04-03T07:06:53;8.77;;;5.10;;
4078;SDS011;2054;47.858;11.156;2023-04-03T07:09:21;8.15;;;5.13;;
4078;SDS011;2054;47.858;11.156;2023-04-03T07:11:48;7.32;;;5.50;;
4078;SDS011;2054;47.858;11.156;2023-04-03T07:14:18;6.55;;;4.85;;
4078;SDS011;2054;47.858;11.156;2023-04-03T07:16:46;8.10;;;5.10;;
4078;SDS011;2054;47.858;11.156;2023-04-03T07:19:13;8.38;;;4.35;;
4078;SDS011;2054;47.858;11.156;2023-04-03T07:21:44;6.90;;;4.97;;
4078;SDS011;2054;47.858;11.156;2023-04-03T07:24:11;7.70;;;5.15;;
4078;SDS011;2054;47.858;11.156;2023-04-03T07:26:43;8.25;;;5.07;;
4078;SDS011;2054;47.858;11.156;2023-04-03T07:29:11;6.28;;;5.05;;
4078;SDS011;2054;47.858;11.156;2023-04-03T07:31:41;6.38;;;4.75;;
4078;SDS011;2054;47.858;11.156;2023-04-03T07:34:09;6.93;;;4.55;;
4078;SDS011;2054;47.858;11.156;2023-04-03T07:36:37;5.70;;;4.30;;
4078;SDS011;2054;47.858;11.156;2023-04-03T07:39:06;7.05;;;4.75;;
4078;SDS011;2054;47.858;11.156;2023-04-03T07:41:33;8.02;;;4.80;;
4078;SDS011;2054;47.858;11.156;2023-04-03T07:44:01;5.18;;;4.18;;
4078;SDS011;2054;47.858;11.156;2023-04-03T07:46:29;6.95;;;4.65;;
4078;SDS011;2054;47.858;11.156;2023-04-03T07:48:56;7.05;;;4.68;;
4078;SDS011;2054;47.858;11.156;2023-04-03T07:51:24;5.13;;;4.20;;
4078;SDS011;2054;47.858;11.156;2023-04-03T07:53:53;4.45;;;3.80;;
4078;SDS011;2054;47.858;11.156;2023-04-03T07:56:22;6.55;;;4.10;;
4078;SDS011;2054;47.858;11.156;2023-04-03T07:58:50;5.03;;;3.65;;
4078;SDS011;2054;47.858;11.156;2023-04-03T08:01:19;5.18;;;3.78;;
4078;SDS011;2054;47.858;11.156;2023-04-03T08:03:46;5.45;;;3.47;;
4078;SDS011;2054;47.858;11.156;2023-04-03T08:06:14;4.35;;;3.40;;
4078;SDS011;2054;47.858;11.156;2023-04-03T08:08:41;6.28;;;3.63;;
4078;SDS011;2054;47.858;11.156;2023-04-03T08:11:09;4.13;;;3.25;;
4078;SDS011;2054;47.858;11.156;2023-04-03T08:13:39;4.68;;;3.30;;
4078;SDS011;2054;47.858;11.156;2023-04-03T08:16:08;5.55;;;3.53;;
4078;SDS011;2054;47.858;11.156;2023-04-03T08:18:36;6.18;;;3.40;;
4078;SDS011;2054;47.858;11.156;2023-04-03T08:21:07;4.57;;;3.33;;
4078;SDS011;2054;47.858;11.156;2023-04-03T08:23:35;3.80;;;3.40;;
4078;SDS011;2054;47.858;11.156;2023-04-03T08:26:06;6.80;;;3.58;;
4078;SDS011;2054;47.858;11.156;2023-04-03T08:28:33;5.53;;;3.42;;
4078;SDS011;2054;47.858;11.156;2023-04-03T08:31:06;6.03;;;3.42;;
4078;SDS011;2054;47.858;11.156;2023-04-03T08:33:36;9.63;;;5.25;;
4078;SDS011;2054;47.858;11.156;2023-04-03T08:36:03;5.72;;;4.93;;
4078;SDS011;2054;47.858;11.156;2023-04-03T08:38:36;6.50;;;4.47;;
4078;SDS011;2054;47.858;11.156;2023-04-03T08:41:04;6.25;;;4.00;;
4078;SDS011;2054;47.858;11.156;2023-04-03T08:43:36;8.93;;;5.20;;
4078;SDS011;2054;47.858;11.156;2023-04-03T08:46:08;4.65;;;3.50;;
4078;SDS011;2054;47.858;11.156;2023-04-03T08:48:38;6.07;;;4.20;;
4078;SDS011;2054;47.858;11.156;2023-04-03T08:51:09;4.82;;;3.63;;
4078;SDS011;2054;47.858;11.156;2023-04-03T08:53:40;8.98;;;4.72;;
4078;SDS011;2054;47.858;11.156;2023-04-03T08:56:09;5.53;;;2.90;;
4078;SDS011;2054;47.858;11.156;2023-04-03T08:58:41;3.90;;;2.70;;
4078;SDS011;2054;47.858;11.156;2023-04-03T09:01:14;10.98;;;5.50;;
4078;SDS011;2054;47.858;11.156;2023-04-03T09:03:44;6.45;;;3.80;;
4078;SDS011;2054;47.858;11.156;2023-04-03T09:06:12;4.68;;;2.78;;
4078;SDS011;2054;47.858;11.156;2023-04-03T09:08:43;3.58;;;2.75;;
4078;SDS011;2054;47.858;11.156;2023-04-03T09:11:13;3.33;;;2.75;;
4078;SDS011;2054;47.858;11.156;2023-04-03T09:13:45;3.10;;;2.70;;
4078;SDS011;2054;47.858;11.156;2023-04-03T09:16:20;3.33;;;2.58;;
4078;SDS011;2054;47.858;11.156;2023-04-03T09:18:48;4.03;;;2.90;;
4078;SDS011;2054;47.858;11.156;2023-04-03T09:21:19;4.30;;;2.67;;
4078;SDS011;2054;47.858;11.156;2023-04-03T09:23:49;4.18;;;3.10;;
4078;SDS011;2054;47.858;11.156;2023-04-03T09:26:18;4.35;;;2.78;;
4078;SDS011;2054;47.858;11.156;2023-04-03T09:28:47;2.63;;;2.38;;
4078;SDS011;2054;47.858;11.156;2023-04-03T09:31:21;4.65;;;3.25;;
4078;SDS011;2054;47.858;11.156;2023-04-03T09:33:49;3.30;;;2.95;;
4078;SDS011;2054;47.858;11.156;2023-04-03T09:39:02;6.47;;;2.90;;
4078;SDS011;2054;47.858;11.156;2023-04-03T09:41:31;5.50;;;2.95;;
4078;SDS011;2054;47.858;11.156;2023-04-03T09:43:58;3.65;;;2.92;;
4078;SDS011;2054;47.858;11.156;2023-04-03T09:46:30;2.90;;;2.63;;
4078;SDS011;2054;47.858;11.156;2023-04-03T09:48:58;4.45;;;2.85;;
4078;SDS011;2054;47.858;11.156;2023-04-03T09:51:26;3.90;;;2.90;;
4078;SDS011;2054;47.858;11.156;2023-04-03T09:53:55;4.32;;;2.67;;
4078;SDS011;2054;47.858;11.156;2023-04-03T09:56:24;3.45;;;2.72;;
4078;SDS011;2054;47.858;11.156;2023-04-03T09:58:53;3.20;;;2.75;;
4078;SDS011;2054;47.858;11.156;2023-04-03T10:01:35;5.70;;;2.90;;
4078;SDS011;2054;47.858;11.156;2023-04-03T10:04:04;3.95;;;2.83;;
4078;SDS011;2054;47.858;11.156;2023-04-03T10:06:32;3.15;;;2.83;;
4078;SDS011;2054;47.858;11.156;2023-04-03T10:09:03;4.38;;;3.00;;
4078;SDS011;2054;47.858;11.156;2023-04-03T10:11:31;4.60;;;3.10;;
4078;SDS011;2054;47.858;11.156;2023-04-03T10:13:59;4.78;;;3.22;;
4078;SDS011;2054;47.858;11.156;2023-04-03T10:16:29;5.72;;;3.20;;
4078;SDS011;2054;47.858;11.156;2023-04-03T10:19:05;3.38;;;3.00;;
4078;SDS011;2054;47.858;11.156;2023-04-03T10:21:39;3.20;;;2.90;;
4078;SDS011;2054;47.858;11.156;2023-04-03T10:24:09;3.72;;;2.97;;
4078;SDS011;2054;47.858;11.156;2023-04-03T10:26:39;3.35;;;2.65;;
4078;SDS011;2054;47.858;11.156;2023-04-03T10:29:09;4.43;;;3.00;;
4078;SDS011;2054;47.858;11.156;2023-04-03T10:31:44;4.25;;;3.08;;
4078;SDS011;2054;47.858;11.156;2023-04-03T10:34:17;5.65;;;3.13;;
4078;SDS011;2054;47.858;11.156;2023-04-03T10:36:48;3.67;;;2.80;;
4078;SDS011;2054;47.858;11.156;2023-04-03T10:39:22;4.82;;;3.60;;
4078;SDS011;2054;47.858;11.156;2023-04-03T10:41:56;3.38;;;2.63;;
4078;SDS011;2054;47.858;11.156;2023-04-03T10:44:28;4.63;;;3.03;;
4078;SDS011;2054;47.858;11.156;2023-04-03T10:47:00;6.20;;;2.90;;
4078;SDS011;2054;47.858;11.156;2023-04-03T10:49:34;3.40;;;2.85;;
4078;SDS011;2054;47.858;11.156;2023-04-03T10:52:06;4.53;;;2.78;;
4078;SDS011;2054;47.858;11.156;2023-04-03T10:54:39;3.03;;;2.72;;
4078;SDS011;2054;47.858;11.156;2023-04-03T10:57:08;4.63;;;2.75;;
4078;SDS011;2054;47.858;11.156;2023-04-03T10:59:37;3.83;;;2.90;;
4078;SDS011;2054;47.858;11.156;2023-04-03T11:02:11;3.53;;;2.50;;
4078;SDS011;2054;47.858;11.156;2023-04-03T11:04:42;3.63;;;2.85;;
4078;SDS011;2054;47.858;11.156;2023-04-03T11:07:12;3.58;;;2.60;;
4078;SDS011;2054;47.858;11.156;2023-04-03T11:09:42;3.75;;;2.70;;
4078;SDS011;2054;47.858;11.156;2023-04-03T11:12:12;2.88;;;2.47;;
4078;SDS011;2054;47.858;11.156;2023-04-03T11:14:40;4.50;;;3.00;;
4078;SDS011;2054;47.858;11.156;2023-04-03T11:17:20;3.72;;;2.65;;
4078;SDS011;2054;47.858;11.156;2023-04-03T11:19:52;3.17;;;2.58;;
4078;SDS011;2054;47.858;11.156;2023-04-03T11:22:25;2.80;;;2.40;;
4078;SDS011;2054;47.858;11.156;2023-04-03T11:24:56;4.13;;;2.67;;
4078;SDS011;2054;47.858;11.156;2023-04-03T11:27:25;3.30;;;2.60;;
4078;SDS011;2054;47.858;11.156;2023-04-03T11:29:52;4.05;;;2.83;;
4078;SDS011;2054;47.858;11.156;2023-04-03T11:32:34;4.13;;;2.67;;
4078;SDS011;2054;47.858;11.156;2023-04-03T11:35:08;3.95;;;3.05;;
4078;SDS011;2054;47.858;11.156;2023-04-03T11:37:38;4.28;;;3.00;;
4078;SDS011;2054;47.858;11.156;2023-04-03T11:40:06;3.53;;;2.72;;
4078;SDS011;2054;47.858;11.156;2023-04-03T11:42:36;3.35;;;2.60;;
4078;SDS011;2054;47.858;11.156;2023-04-03T11:45:26;2.50;;;2.30;;
4078;SDS011;2054;47.858;11.156;2023-04-03T11:47:55;3.42;;;2.63;;
4078;SDS011;2054;47.858;11.156;2023-04-03T11:53:34;3.83;;;2.88;;
4078;SDS011;2054;47.858;11.156;2023-04-03T11:56:03;3.90;;;2.85;;
4078;SDS011;2054;47.858;11.156;2023-04-03T11:58:31;3.72;;;2.60;;
4078;SDS011;2054;47.858;11.156;2023-04-03T12:01:05;3.22;;;2.60;;
4078;SDS011;2054;47.858;11.156;2023-04-03T12:03:55;3.90;;;3.00;;
4078;SDS011;2054;47.858;11.156;2023-04-03T12:06:42;3.72;;;2.53;;
4078;SDS011;2054;47.858;11.156;2023-04-03T12:09:22;4.43;;;2.63;;
4078;SDS011;2054;47.858;11.156;2023-04-03T12:11:51;3.58;;;2.50;;
4078;SDS011;2054;47.858;11.156;2023-04-03T12:14:19;2.90;;;2.60;;
4078;SDS011;2054;47.858;11.156;2023-04-03T12:16:49;3.92;;;2.63;;
4078;SDS011;2054;47.858;11.156;2023-04-03T12:19:34;3.97;;;2.70;;
4078;SDS011;2054;47.858;11.156;2023-04-03T12:22:06;3.13;;;2.22;;
4078;SDS011;2054;47.858;11.156;2023-04-03T12:24:35;2.88;;;2.40;;
4078;SDS011;2054;47.858;11.156;2023-04-03T12:29:55;4.85;;;2.80;;
4078;SDS011;2054;47.858;11.156;2023-04-03T12:32:43;5.93;;;3.70;;
4078;SDS011;2054;47.858;11.156;2023-04-03T12:35:16;5.53;;;3.35;;
4078;SDS011;2054;47.858;11.156;2023-04-03T12:37:57;3.35;;;3.00;;
4078;SDS011;2054;47.858;11.156;2023-04-03T12:40:30;4.30;;;2.30;;
4078;SDS011;2054;47.858;11.156;2023-04-03T12:45:44;3.45;;;2.60;;
4078;SDS011;2054;47.858;11.156;2023-04-03T12:48:14;3.08;;;2.60;;
4078;SDS011;2054;47.858;11.156;2023-04-03T12:50:42;4.13;;;3.13;;
4078;SDS011;2054;47.858;11.156;2023-04-03T12:53:11;5.32;;;3.42;;
4078;SDS011;2054;47.858;11.156;2023-04-03T12:55:41;4.47;;;3.08;;
4078;SDS011;2054;47.858;11.156;2023-04-03T12:58:16;4.95;;;3.10;;
4078;SDS011;2054;47.858;11.156;2023-04-03T13:00:43;6.75;;;3.70;;
4078;SDS011;2054;47.858;11.156;2023-04-03T13:03:21;4.90;;;3.35;;
4078;SDS011;2054;47.858;11.156;2023-04-03T13:05:49;5.28;;;3.22;;
4078;SDS011;2054;47.858;11.156;2023-04-03T13:08:17;3.95;;;3.15;;
4078;SDS011;2054;47.858;11.156;2023-04-03T13:10:50;4.85;;;3.03;;
4078;SDS011;2054;47.858;11.156;2023-04-03T13:13:18;2.97;;;2.67;;
4078;SDS011;2054;47.858;11.156;2023-04-03T13:15:48;5.82;;;3.00;;
4078;SDS011;2054;47.858;11.156;2023-04-03T13:18:26;4.30;;;2.78;;
4078;SDS011;2054;47.858;11.156;2023-04-03T13:20:56;5.35;;;2.80;;
4078;SDS011;2054;47.858;11.156;2023-04-03T13:23:24;3.13;;;2.83;;
4078;SDS011;2054;47.858;11.156;2023-04-03T13:25:53;3.67;;;2.75;;
4078;SDS011;2054;47.858;11.156;2023-04-03T13:28:23;3.42;;;2.78;;
4078;SDS011;2054;47.858;11.156;2023-04-03T13:30:56;3.75;;;2.70;;
4078;SDS011;2054;47.858;11.156;2023-04-03T13:33:25;3.22;;;2.85;;
4078;SDS011;2054;47.858;11.156;2023-04-03T13:35:56;4.88;;;2.40;;
4078;SDS011;2054;47.858;11.156;2023-04-03T13:38:24;4.72;;;2.47;;
4078;SDS011;2054;47.858;11.156;2023-04-03T13:40:55;4.03;;;2.60;;
4078;SDS011;2054;47.858;11.156;2023-04-03T13:43:23;5.93;;;2.30;;
4078;SDS011;2054;47.858;11.156;2023-04-03T13:45:56;3.42;;;2.45;;
4078;SDS011;2054;47.858;11.156;2023-04-03T13:48:24;2.83;;;2.42;;
4078;SDS011;2054;47.858;11.156;2023-04-03T13:50:57;3.42;;;2.42;;
4078;SDS011;2054;47.858;11.156;2023-04-03T13:53:25;4.20;;;2.65;;
4078;SDS011;2054;47.858;11.156;2023-04-03T13:56:00;5.03;;;2.40;;
4078;SDS011;2054;47.858;11.156;2023-04-03T13:58:31;3.55;;;2.60;;
4078;SDS011;2054;47.858;11.156;2023-04-03T14:01:00;2.63;;;2.22;;
4078;SDS011;2054;47.858;11.156;2023-04-03T14:03:30;2.58;;;2.30;;
4078;SDS011;2054;47.858;11.156;2023-04-03T14:05:57;4.20;;;2.45;;
4078;SDS011;2054;47.858;11.156;2023-04-03T14:08:26;4.15;;;2.58;;
4078;SDS011;2054;47.858;11.156;2023-04-03T14:10:53;4.82;;;2.35;;
4078;SDS011;2054;47.858;11.156;2023-04-03T14:13:25;3.10;;;2.10;;
4078;SDS011;2054;47.858;11.156;2023-04-03T14:15:52;4.85;;;2.17;;
4078;SDS011;2054;47.858;11.156;2023-04-03T14:18:24;4.78;;;2.50;;
4078;SDS011;2054;47.858;11.156;2023-04-03T14:20:51;4.90;;;2.70;;
4078;SDS011;2054;47.858;11.156;2023-04-03T14:23:18;8.95;;;4.35;;
4078;SDS011;2054;47.858;11.156;2023-04-03T14:25:45;15.82;;;7.10;;
4078;SDS011;2054;47.858;11.156;2023-04-03T14:28:14;12.40;;;5.22;;
4078;SDS011;2054;47.858;11.156;2023-04-03T14:30:44;6.90;;;3.00;;
4078;SDS011;2054;47.858;11.156;2023-04-03T14:33:13;5.07;;;2.35;;
4078;SDS011;2054;47.858;11.156;2023-04-03T14:35:40;4.90;;;3.35;;
4078;SDS011;2054;47.858;11.156;2023-04-03T14:38:12;3.72;;;2.20;;
4078;SDS011;2054;47.858;11.156;2023-04-03T14:40:44;9.85;;;5.97;;
4078;SDS011;2054;47.858;11.156;2023-04-03T14:43:13;6.32;;;3.80;;
4078;SDS011;2054;47.858;11.156;2023-04-03T14:45:41;20.63;;;12.32;;
4078;SDS011;2054;47.858;11.156;2023-04-03T14:48:11;9.98;;;4.70;;
4078;SDS011;2054;47.858;11.156;2023-04-03T14:50:42;4.32;;;3.50;;
4078;SDS011;2054;47.858;11.156;2023-04-03T14:53:10;4.57;;;2.42;;
4078;SDS011;2054;47.858;11.156;2023-04-03T14:55:41;2.58;;;2.10;;
4078;SDS011;2054;47.858;11.156;2023-04-03T14:58:14;2.13;;;1.90;;
4078;SDS011;2054;47.858;11.156;2023-04-03T15:00:41;2.28;;;1.90;;
4078;SDS011;2054;47.858;11.156;2023-04-03T15:03:13;4.03;;;2.58;;
4078;SDS011;2054;47.858;11.156;2023-04-03T15:05:41;2.63;;;2.00;;
4078;SDS011;2054;47.858;11.156;2023-04-03T15:08:13;5.32;;;2.50;;
4078;SDS011;2054;47.858;11.156;2023-04-03T15:10:44;3.58;;;2.20;;
4078;SDS011;2054;47.858;11.156;2023-04-03T15:13:11;4.70;;;2.65;;
4078;SDS011;2054;47.858;11.156;2023-04-03T15:15:42;4.35;;;2.50;;
4078;SDS011;2054;47.858;11.156;2023-04-03T15:18:18;3.60;;;2.17;;
4078;SDS011;2054;47.858;11.156;2023-04-03T15:20:46;2.60;;;2.40;;
4078;SDS011;2054;47.858;11.156;2023-04-03T15:23:14;2.42;;;2.17;;
4078;SDS011;2054;47.858;11.156;2023-04-03T15:25:42;6.05;;;2.40;;
4078;SDS011;2054;47.858;11.156;2023-04-03T15:28:10;2.85;;;2.13;;
4078;SDS011;2054;47.858;11.156;2023-04-03T15:30:43;3.25;;;2.38;;
4078;SDS011;2054;47.858;11.156;2023-04-03T15:33:10;2.83;;;2.00;;
4078;SDS011;2054;47.858;11.156;2023-04-03T15:35:39;4.03;;;2.17;;
4078;SDS011;2054;47.858;11.156;2023-04-03T15:38:06;3.97;;;1.80;;
4078;SDS011;2054;47.858;11.156;2023-04-03T15:40:34;3.88;;;2.13;;
4078;SDS011;2054;47.858;11.156;2023-04-03T15:43:04;3.13;;;2.20;;
4078;SDS011;2054;47.858;11.156;2023-04-03T15:45:31;4.28;;;2.13;;
4078;SDS011;2054;47.858;11.156;2023-04-03T15:48:01;2.20;;;1.75;;
4078;SDS011;2054;47.858;11.156;2023-04-03T15:50:29;3.75;;;1.80;;
4078;SDS011;2054;47.858;11.156;2023-04-03T15:52:58;2.58;;;1.95;;
4078;SDS011;2054;47.858;11.156;2023-04-03T15:55:30;3.35;;;2.10;;
4078;SDS011;2054;47.858;11.156;2023-04-03T15:57:57;2.72;;;1.50;;
4078;SDS011;2054;47.858;11.156;2023-04-03T16:00:25;3.08;;;2.05;;
4078;SDS011;2054;47.858;11.156;2023-04-03T16:02:53;3.42;;;1.75;;
4078;SDS011;2054;47.858;11.156;2023-04-03T16:05:20;2.75;;;1.48;;
4078;SDS011;2054;47.858;11.156;2023-04-03T16:07:48;2.33;;;1.77;;
4078;SDS011;2054;47.858;11.156;2023-04-03T16:10:17;1.90;;;1.58;;
4078;SDS011;2054;47.858;11.156;2023-04-03T16:12:46;3.78;;;1.88;;
4078;SDS011;2054;47.858;11.156;2023-04-03T16:15:13;4.18;;;1.88;;
4078;SDS011;2054;47.858;11.156;2023-04-03T16:17:41;2.33;;;1.80;;
4078;SDS011;2054;47.858;11.156;2023-04-03T16:20:09;3.45;;;1.85;;
4078;SDS011;2054;47.858;11.156;2023-04-03T16:22:37;3.38;;;1.80;;
4078;SDS011;2054;47.858;11.156;2023-04-03T16:25:05;4.00;;;2.25;;
4078;SDS011;2054;47.858;11.156;2023-04-03T16:27:34;4.43;;;2.17;;
4078;SDS011;2054;47.858;11.156;2023-04-03T16:30:03;3.28;;;1.77;;
4078;SDS011;2054;47.858;11.156;2023-04-03T16:32:32;3.45;;;1.80;;
4078;SDS011;2054;47.858;11.156;2023-04-03T16:34:59;2.83;;;1.70;;
4078;SDS011;2054;47.858;11.156;2023-04-03T16:37:27;2.10;;;1.63;;
4078;SDS011;2054;47.858;11.156;2023-04-03T16:40:00;3.53;;;1.85;;
4078;SDS011;2054;47.858;11.156;2023-04-03T16:42:28;4.22;;;1.75;;
4078;SDS011;2054;47.858;11.156;2023-04-03T16:44:56;1.92;;;1.40;;
4078;SDS011;2054;47.858;11.156;2023-04-03T16:47:27;3.03;;;1.70;;
4078;SDS011;2054;47.858;11.156;2023-04-03T16:49:55;4.45;;;1.80;;
4078;SDS011;2054;47.858;11.156;2023-04-03T16:52:22;2.35;;;1.50;;
4078;SDS011;2054;47.858;11.156;2023-04-03T16:54:50;3.70;;;1.80;;
4078;SDS011;2054;47.858;11.156;2023-04-03T16:57:20;5.75;;;1.70;;
4078;SDS011;2054;47.858;11.156;2023-04-03T16:59:47;2.47;;;1.60;;
4078;SDS011;2054;47.858;11.156;2023-04-03T17:02:18;2.55;;;1.67;;
4078;SDS011;2054;47.858;11.156;2023-04-03T17:04:45;4.63;;;2.10;;
4078;SDS011;2054;47.858;11.156;2023-04-03T17:07:13;4.72;;;1.90;;
4078;SDS011;2054;47.858;11.156;2023-04-03T17:09:40;4.60;;;1.60;;
4078;SDS011;2054;47.858;11.156;2023-04-03T17:12:07;5.20;;;2.20;;
4078;SDS011;2054;47.858;11.156;2023-04-03T17:14:35;2.13;;;1.92;;
4078;SDS011;2054;47.858;11.156;2023-04-03T17:17:02;3.67;;;1.85;;
4078;SDS011;2054;47.858;11.156;2023-04-03T17:19:31;5.13;;;1.80;;
4078;SDS011;2054;47.858;11.156;2023-04-03T17:21:59;2.90;;;1.40;;
4078;SDS011;2054;47.858;11.156;2023-04-03T17:24:27;3.13;;;2.20;;
4078;SDS011;2054;47.858;11.156;2023-04-03T17:26:55;5.43;;;2.33;;
4078;SDS011;2054;47.858;11.156;2023-04-03T17:29:22;6.40;;;2.83;;
4078;SDS011;2054;47.858;11.156;2023-04-03T17:31:50;5.97;;;2.40;;
4078;SDS011;2054;47.858;11.156;2023-04-03T17:34:17;3.47;;;2.28;;
4078;SDS011;2054;47.858;11.156;2023-04-03T17:36:47;3.60;;;2.10;;
4078;SDS011;2054;47.858;11.156;2023-04-03T17:39:15;5.72;;;2.20;;
4078;SDS011;2054;47.858;11.156;2023-04-03T17:41:42;2.65;;;1.80;;
4078;SDS011;2054;47.858;11.156;2023-04-03T17:44:11;4.03;;;1.98;;
4078;SDS011;2054;47.858;11.156;2023-04-03T17:46:39;2.40;;;1.70;;
4078;SDS011;2054;47.858;11.156;2023-04-03T17:49:07;2.42;;;1.77;;
4078;SDS011;2054;47.858;11.156;2023-04-03T17:51:39;4.53;;;2.03;;
4078;SDS011;2054;47.858;11.156;2023-04-03T17:54:08;5.30;;;1.70;;
4078;SDS011;2054;47.858;11.156;2023-04-03T17:56:35;4.85;;;2.03;;
4078;SDS011;2054;47.858;11.156;2023-04-03T17:59:03;3.67;;;1.80;;
4078;SDS011;2054;47.858;11.156;2023-04-03T18:01:31;4.40;;;1.77;;
4078;SDS011;2054;47.858;11.156;2023-04-03T18:04:00;4.53;;;2.10;;
4078;SDS011;2054;47.858;11.156;2023-04-03T18:06:29;3.92;;;2.50;;